sensor_id;sensor_type;location;lat;lon;timestamp;pressure;altitude;pressure_sealevel;temperature;humidity
15694;BME280;7947;48.834;9.132;2023-04-27T00:02:25;98276.53;;;9.63;72.08
15694;BME280;7947;48.834;9.132;2023-04-27T00:05:28;98280.25;;;9.62;72.68
15694;BME280;7947;48.834;9.132;2023-04-27T00:08:32;98279.16;;;9.58;72.78
15694;BME280;7947;48.834;9.132;2023-04-27T00:11:35;98273.81;;;9.48;73.42
15694;BME280;7947;48.834;9.132;2023-04-27T00:14:38;98272.22;;;9.52;73.30
15694;BME280;7947;48.834;9.132;2023-04-27T00:17:40;98269.28;;;9.54;73.26
15694;BME280;7947;48.834;9.132;2023-04-27T00:20:44;98271.69;;;9.50;73.74
15694;BME280;7947;48.834;9.132;2023-04-27T00:23:48;98267.38;;;9.54;73.44
15694;BME280;7947;48.834;9.132;2023-04-27T00:26:51;98262.59;;;9.61;73.87
15694;BME280;7947;48.834;9.132;2023-04-27T00:29:54;98260.44;;;9.53;73.42
15694;BME280;7947;48.834;9.132;2023-04-27T00:32:57;98257.44;;;9.40;73.29
15694;BME280;7947;48.834;9.132;2023-04-27T00:36:00;98261.19;;;9.34;73.49
15694;BME280;7947;48.834;9.132;2023-04-27T00:39:04;98259.00;;;9.26;73.40
15694;BME280;7947;48.834;9.132;2023-04-27T00:42:07;98252.59;;;9.32;75.13
15694;BME280;7947;48.834;9.132;2023-04-27T00:45:14;98253.97;;;9.39;74.41
15694;BME280;7947;48.834;9.132;2023-04-27T00:48:17;98252.09;;;9.45;74.51
15694;BME280;7947;48.834;9.132;2023-04-27T00:51:20;98252.13;;;9.50;73.87
15694;BME280;7947;48.834;9.132;2023-04-27T00:54:24;98246.75;;;9.40;73.21
15694;BME280;7947;48.834;9.132;2023-04-27T00:57:27;98247.25;;;9.32;73.99
15694;BME280;7947;48.834;9.132;2023-04-27T01:00:30;98245.34;;;9.27;75.14
15694;BME280;7947;48.834;9.132;2023-04-27T01:03:33;98242.97;;;9.31;76.06
15694;BME280;7947;48.834;9.132;2023-04-27T01:06:36;98253.16;;;9.29;75.76
15694;BME280;7947;48.834;9.132;2023-04-27T01:09:41;98251.25;;;9.24;76.03
15694;BME280;7947;48.834;9.132;2023-04-27T01:12:43;98250.44;;;9.24;76.57
15694;BME280;7947;48.834;9.132;2023-04-27T01:15:46;98248.28;;;9.21;76.21
15694;BME280;7947;48.834;9.132;2023-04-27T01:18:50;98254.47;;;9.26;77.34
15694;BME280;7947;48.834;9.132;2023-04-27T01:21:53;98257.13;;;9.26;76.46
15694;BME280;7947;48.834;9.132;2023-04-27T01:24:57;98254.72;;;9.25;76.55
15694;BME280;7947;48.834;9.132;2023-04-27T01:27:59;98259.00;;;9.21;77.06
15694;BME280;7947;48.834;9.132;2023-04-27T01:31:02;98258.50;;;9.29;76.84
15694;BME280;7947;48.834;9.132;2023-04-27T01:34:05;98254.72;;;9.30;76.92
15694;BME280;7947;48.834;9.132;2023-04-27T01:37:08;98259.81;;;9.31;77.14
15694;BME280;7947;48.834;9.132;2023-04-27T01:40:13;98253.66;;;9.21;76.85
15694;BME280;7947;48.834;9.132;2023-04-27T01:43:15;98248.84;;;9.23;76.45
15694;BME280;7947;48.834;9.132;2023-04-27T01:46:19;98254.19;;;9.28;76.33
15694;BME280;7947;48.834;9.132;2023-04-27T01:49:22;98245.63;;;9.26;76.32
15694;BME280;7947;48.834;9.132;2023-04-27T01:52:25;98250.19;;;9.25;76.64
15694;BME280;7947;48.834;9.132;2023-04-27T01:55:29;98258.44;;;9.19;76.67
15694;BME280;7947;48.834;9.132;2023-04-27T01:58:32;98260.06;;;9.20;76.70
15694;BME280;7947;48.834;9.132;2023-04-27T02:01:34;98256.06;;;9.22;76.79
15694;BME280;7947;48.834;9.132;2023-04-27T02:04:37;98257.38;;;9.20;76.56
15694;BME280;7947;48.834;9.132;2023-04-27T02:07:40;98265.94;;;9.12;76.65
15694;BME280;7947;48.834;9.132;2023-04-27T02:10:44;98273.41;;;9.15;76.79
15694;BME280;7947;48.834;9.132;2023-04-27T02:13:47;98265.63;;;9.08;76.72
15694;BME280;7947;48.834;9.132;2023-04-27T02:16:50;98276.09;;;9.09;77.44
15694;BME280;7947;48.834;9.132;2023-04-27T02:19:53;98270.44;;;9.06;77.24
15694;BME280;7947;48.834;9.132;2023-04-27T02:22:55;98273.91;;;9.01;77.90
15694;BME280;7947;48.834;9.132;2023-04-27T02:26:00;98273.31;;;8.94;77.80
15694;BME280;7947;48.834;9.132;2023-04-27T02:29:02;98280.00;;;8.92;78.01
15694;BME280;7947;48.834;9.132;2023-04-27T02:32:05;98283.72;;;8.86;78.09
15694;BME280;7947;48.834;9.132;2023-04-27T02:35:08;98287.72;;;8.88;78.61
15694;BME280;7947;48.834;9.132;2023-04-27T02:38:11;98279.22;;;8.96;78.78
15694;BME280;7947;48.834;9.132;2023-04-27T02:41:15;98276.53;;;8.96;79.02
15694;BME280;7947;48.834;9.132;2023-04-27T02:44:18;98286.69;;;8.94;79.12
15694;BME280;7947;48.834;9.132;2023-04-27T02:47:21;98278.16;;;8.97;79.23
15694;BME280;7947;48.834;9.132;2023-04-27T02:50:24;98284.81;;;8.90;79.30
15694;BME280;7947;48.834;9.132;2023-04-27T02:53:27;98282.09;;;8.85;79.80
15694;BME280;7947;48.834;9.132;2023-04-27T02:56:31;98292.00;;;8.84;80.09
15694;BME280;7947;48.834;9.132;2023-04-27T02:59:34;98291.69;;;8.81;80.34
15694;BME280;7947;48.834;9.132;2023-04-27T03:02:37;98287.72;;;8.88;80.71
15694;BME280;7947;48.834;9.132;2023-04-27T03:05:40;98292.03;;;8.89;80.74
15694;BME280;7947;48.834;9.132;2023-04-27T03:08:43;98299.03;;;9.00;80.79
15694;BME280;7947;48.834;9.132;2023-04-27T03:11:47;98292.91;;;9.05;80.15
15694;BME280;7947;48.834;9.132;2023-04-27T03:14:50;98282.22;;;9.05;80.36
15694;BME280;7947;48.834;9.132;2023-04-27T03:17:52;98284.59;;;9.01;80.34
15694;BME280;7947;48.834;9.132;2023-04-27T03:21:04;98291.81;;;9.01;80.44
15694;BME280;7947;48.834;9.132;2023-04-27T03:24:07;98286.25;;;9.07;80.55
15694;BME280;7947;48.834;9.132;2023-04-27T03:27:11;98287.56;;;9.10;78.96
15694;BME280;7947;48.834;9.132;2023-04-27T03:30:14;98283.25;;;9.04;78.49
15694;BME280;7947;48.834;9.132;2023-04-27T03:33:17;98288.53;;;8.89;78.04
15694;BME280;7947;48.834;9.132;2023-04-27T03:36:20;98288.53;;;8.89;78.26
15694;BME280;7947;48.834;9.132;2023-04-27T03:39:22;98293.88;;;8.89;78.62
15694;BME280;7947;48.834;9.132;2023-04-27T03:42:26;98297.03;;;8.81;78.62
15694;BME280;7947;48.834;9.132;2023-04-27T03:45:30;98287.72;;;8.83;79.73
15694;BME280;7947;48.834;9.132;2023-04-27T03:48:32;98291.22;;;8.89;80.03
15694;BME280;7947;48.834;9.132;2023-04-27T03:51:35;98292.56;;;8.91;80.15
15694;BME280;7947;48.834;9.132;2023-04-27T03:54:40;98292.03;;;8.94;80.23
15694;BME280;7947;48.834;9.132;2023-04-27T03:57:44;98298.19;;;8.95;80.70
15694;BME280;7947;48.834;9.132;2023-04-27T04:00:47;98302.25;;;8.97;79.94
15694;BME280;7947;48.834;9.132;2023-04-27T04:03:49;98296.59;;;8.94;80.23
15694;BME280;7947;48.834;9.132;2023-04-27T04:06:52;98291.25;;;8.94;80.91
15694;BME280;7947;48.834;9.132;2023-04-27T04:09:55;98295.53;;;8.95;81.43
15694;BME280;7947;48.834;9.132;2023-04-27T04:12:59;98303.56;;;8.95;81.38
15694;BME280;7947;48.834;9.132;2023-04-27T04:16:03;98294.44;;;8.91;81.37
15694;BME280;7947;48.834;9.132;2023-04-27T04:19:07;98297.91;;;8.86;81.64
15694;BME280;7947;48.834;9.132;2023-04-27T04:22:10;98291.22;;;8.89;81.24
15694;BME280;7947;48.834;9.132;2023-04-27T04:25:13;98297.94;;;8.96;81.05
15694;BME280;7947;48.834;9.132;2023-04-27T04:28:17;98310.31;;;9.07;80.40
15694;BME280;7947;48.834;9.132;2023-04-27T04:31:19;98306.00;;;9.06;80.37
15694;BME280;7947;48.834;9.132;2023-04-27T04:34:23;98308.97;;;9.05;79.45
15694;BME280;7947;48.834;9.132;2023-04-27T04:37:26;98309.47;;;9.02;80.15
15694;BME280;7947;48.834;9.132;2023-04-27T04:40:29;98311.63;;;9.00;80.67
15694;BME280;7947;48.834;9.132;2023-04-27T04:43:34;98306.28;;;9.00;81.23
15694;BME280;7947;48.834;9.132;2023-04-27T04:46:37;98305.72;;;8.98;80.58
15694;BME280;7947;48.834;9.132;2023-04-27T04:49:40;98308.19;;;9.09;81.09
15694;BME280;7947;48.834;9.132;2023-04-27T04:52:43;98311.94;;;9.14;81.31
15694;BME280;7947;48.834;9.132;2023-04-27T04:55:47;98302.63;;;9.21;81.50
15694;BME280;7947;48.834;9.132;2023-04-27T04:58:51;98309.56;;;9.17;81.55
15694;BME280;7947;48.834;9.132;2023-04-27T05:01:54;98309.78;;;9.16;81.78
15694;BME280;7947;48.834;9.132;2023-04-27T05:04:57;98311.16;;;9.18;81.84
15694;BME280;7947;48.834;9.132;2023-04-27T05:08:00;98311.19;;;9.23;82.06
15694;BME280;7947;48.834;9.132;2023-04-27T05:11:03;98320.59;;;9.31;81.80
15694;BME280;7947;48.834;9.132;2023-04-27T05:14:08;98310.44;;;9.33;81.22
15694;BME280;7947;48.834;9.132;2023-04-27T05:17:11;98310.69;;;9.36;80.38
15694;BME280;7947;48.834;9.132;2023-04-27T05:20:14;98306.72;;;9.44;80.15
15694;BME280;7947;48.834;9.132;2023-04-27T05:23:16;98310.72;;;9.41;79.23
15694;BME280;7947;48.834;9.132;2023-04-27T05:26:19;98304.03;;;9.44;78.09
15694;BME280;7947;48.834;9.132;2023-04-27T05:29:23;98310.44;;;9.43;77.30
15694;BME280;7947;48.834;9.132;2023-04-27T05:32:27;98321.47;;;9.51;77.67
15694;BME280;7947;48.834;9.132;2023-04-27T05:35:31;98324.97;;;9.62;76.98
15694;BME280;7947;48.834;9.132;2023-04-27T05:38:34;98323.34;;;9.66;76.69
15694;BME280;7947;48.834;9.132;2023-04-27T05:41:40;98324.47;;;9.75;76.71
15694;BME280;7947;48.834;9.132;2023-04-27T05:44:44;98329.31;;;9.88;75.81
15694;BME280;7947;48.834;9.132;2023-04-27T05:47:47;98319.69;;;9.97;76.43
15694;BME280;7947;48.834;9.132;2023-04-27T05:50:58;98322.66;;;10.00;75.49
15694;BME280;7947;48.834;9.132;2023-04-27T05:54:00;98330.94;;;10.09;75.80
15694;BME280;7947;48.834;9.132;2023-04-27T05:57:03;98336.88;;;10.11;74.13
15694;BME280;7947;48.834;9.132;2023-04-27T06:00:09;98339.06;;;10.14;74.22
15694;BME280;7947;48.834;9.132;2023-04-27T06:03:13;98332.28;;;10.07;74.74
15694;BME280;7947;48.834;9.132;2023-04-27T06:06:16;98340.59;;;10.05;73.76
15694;BME280;7947;48.834;9.132;2023-04-27T06:09:19;98342.50;;;10.10;72.68
15694;BME280;7947;48.834;9.132;2023-04-27T06:12:22;98345.47;;;10.23;74.40
15694;BME280;7947;48.834;9.132;2023-04-27T06:15:26;98344.97;;;10.31;74.70
15694;BME280;7947;48.834;9.132;2023-04-27T06:18:30;98342.81;;;10.33;74.68
15694;BME280;7947;48.834;9.132;2023-04-27T06:21:33;98348.69;;;10.45;73.84
15694;BME280;7947;48.834;9.132;2023-04-27T06:24:36;98351.13;;;10.47;72.27
15694;BME280;7947;48.834;9.132;2023-04-27T06:27:39;98348.16;;;10.43;72.07
15694;BME280;7947;48.834;9.132;2023-04-27T06:30:44;98352.19;;;10.56;72.70
15694;BME280;7947;48.834;9.132;2023-04-27T06:33:47;98352.44;;;10.69;72.25
15694;BME280;7947;48.834;9.132;2023-04-27T06:36:49;98347.06;;;10.74;72.14
15694;BME280;7947;48.834;9.132;2023-04-27T06:39:52;98351.63;;;10.79;70.69
15694;BME280;7947;48.834;9.132;2023-04-27T06:42:56;98351.88;;;10.93;71.59
15694;BME280;7947;48.834;9.132;2023-04-27T06:46:00;98354.00;;;11.06;72.04
15694;BME280;7947;48.834;9.132;2023-04-27T06:49:03;98356.06;;;11.29;70.97
15694;BME280;7947;48.834;9.132;2023-04-27T06:52:06;98365.13;;;11.48;69.44
15694;BME280;7947;48.834;9.132;2023-04-27T06:55:09;98361.09;;;11.55;69.08
15694;BME280;7947;48.834;9.132;2023-04-27T06:58:12;98358.69;;;11.49;67.80
15694;BME280;7947;48.834;9.132;2023-04-27T07:01:16;98366.47;;;11.55;68.12
15694;BME280;7947;48.834;9.132;2023-04-27T07:04:19;98366.97;;;11.67;68.45
15694;BME280;7947;48.834;9.132;2023-04-27T07:07:22;98364.47;;;11.81;67.05
15694;BME280;7947;48.834;9.132;2023-04-27T07:10:26;98359.88;;;11.92;65.87
15694;BME280;7947;48.834;9.132;2023-04-27T07:13:29;98372.50;;;11.91;64.20
15694;BME280;7947;48.834;9.132;2023-04-27T07:16:33;98369.81;;;11.96;64.93
15694;BME280;7947;48.834;9.132;2023-04-27T07:19:37;98366.50;;;12.09;65.03
15694;BME280;7947;48.834;9.132;2023-04-27T07:22:40;98360.88;;;12.01;63.42
15694;BME280;7947;48.834;9.132;2023-04-27T07:25:42;98361.84;;;12.20;61.89
15694;BME280;7947;48.834;9.132;2023-04-27T07:28:46;98363.88;;;12.72;63.01
15694;BME280;7947;48.834;9.132;2023-04-27T07:31:52;98360.72;;;13.22;60.67
15694;BME280;7947;48.834;9.132;2023-04-27T07:34:55;98359.28;;;13.53;59.19
15694;BME280;7947;48.834;9.132;2023-04-27T07:37:58;98358.19;;;13.96;57.42
15694;BME280;7947;48.834;9.132;2023-04-27T07:41:02;98349.41;;;14.28;54.73
15694;BME280;7947;48.834;9.132;2023-04-27T07:44:06;98340.78;;;14.44;54.49
15694;BME280;7947;48.834;9.132;2023-04-27T07:47:10;98340.56;;;14.73;55.11
15694;BME280;7947;48.834;9.132;2023-04-27T07:50:14;98348.44;;;15.02;55.17
15694;BME280;7947;48.834;9.132;2023-04-27T07:53:18;98343.44;;;15.09;52.33
15694;BME280;7947;48.834;9.132;2023-04-27T07:56:21;98344.53;;;15.08;50.81
15694;BME280;7947;48.834;9.132;2023-04-27T07:59:27;98351.84;;;15.07;49.96
15694;BME280;7947;48.834;9.132;2023-04-27T08:02:31;98347.72;;;15.10;48.90
15694;BME280;7947;48.834;9.132;2023-04-27T08:05:35;98344.84;;;15.33;48.55
15694;BME280;7947;48.834;9.132;2023-04-27T08:08:39;98344.19;;;15.55;47.74
15694;BME280;7947;48.834;9.132;2023-04-27T08:11:42;98346.00;;;15.73;47.51
15694;BME280;7947;48.834;9.132;2023-04-27T08:14:45;98339.63;;;15.91;46.82
15694;BME280;7947;48.834;9.132;2023-04-27T08:17:49;98331.44;;;15.83;47.31
15694;BME280;7947;48.834;9.132;2023-04-27T08:20:52;98327.13;;;15.82;47.34
15694;BME280;7947;48.834;9.132;2023-04-27T08:23:55;98326.50;;;15.98;48.72
15694;BME280;7947;48.834;9.132;2023-04-27T08:26:58;98325.97;;;16.10;45.42
15694;BME280;7947;48.834;9.132;2023-04-27T08:30:01;98322.25;;;16.19;46.18
15694;BME280;7947;48.834;9.132;2023-04-27T08:33:05;98329.00;;;16.31;45.80
15694;BME280;7947;48.834;9.132;2023-04-27T08:36:08;98318.13;;;16.44;46.55
15694;BME280;7947;48.834;9.132;2023-04-27T08:39:11;98315.59;;;16.48;48.81
15694;BME280;7947;48.834;9.132;2023-04-27T08:42:14;98321.16;;;16.65;48.17
15694;BME280;7947;48.834;9.132;2023-04-27T08:45:17;98315.38;;;16.80;48.03
15694;BME280;7947;48.834;9.132;2023-04-27T08:48:22;98313.00;;;16.87;45.41
15694;BME280;7947;48.834;9.132;2023-04-27T08:51:25;98311.00;;;17.01;42.74
15694;BME280;7947;48.834;9.132;2023-04-27T08:54:29;98306.19;;;16.89;41.34
15694;BME280;7947;48.834;9.132;2023-04-27T08:57:32;98300.34;;;17.04;40.40
15694;BME280;7947;48.834;9.132;2023-04-27T09:00:38;98300.09;;;17.23;39.33
15694;BME280;7947;48.834;9.132;2023-04-27T09:03:43;98308.44;;;17.35;40.86
15694;BME280;7947;48.834;9.132;2023-04-27T09:06:47;98298.31;;;17.49;39.49
15694;BME280;7947;48.834;9.132;2023-04-27T09:10:01;98306.28;;;17.54;38.81
15694;BME280;7947;48.834;9.132;2023-04-27T09:13:04;98305.78;;;17.44;41.93
15694;BME280;7947;48.834;9.132;2023-04-27T09:16:07;98310.66;;;17.33;42.60
15694;BME280;7947;48.834;9.132;2023-04-27T09:19:22;98313.59;;;17.06;42.38
15694;BME280;7947;48.834;9.132;2023-04-27T09:22:25;98326.06;;;16.85;43.96
15694;BME280;7947;48.834;9.132;2023-04-27T09:25:30;98322.19;;;16.77;43.21
15694;BME280;7947;48.834;9.132;2023-04-27T09:28:36;98323.78;;;16.78;41.50
15694;BME280;7947;48.834;9.132;2023-04-27T09:31:39;98322.88;;;16.83;43.45
15694;BME280;7947;48.834;9.132;2023-04-27T09:34:43;98321.69;;;16.97;40.79
15694;BME280;7947;48.834;9.132;2023-04-27T09:37:47;98316.72;;;16.99;42.45
15694;BME280;7947;48.834;9.132;2023-04-27T09:40:53;98318.28;;;17.23;43.11
15694;BME280;7947;48.834;9.132;2023-04-27T09:43:57;98310.25;;;17.48;41.10
15694;BME280;7947;48.834;9.132;2023-04-27T09:47:00;98308.44;;;17.74;41.60
15694;BME280;7947;48.834;9.132;2023-04-27T09:50:06;98310.06;;;18.01;39.08
15694;BME280;7947;48.834;9.132;2023-04-27T09:53:11;98307.50;;;18.22;39.78
15694;BME280;7947;48.834;9.132;2023-04-27T09:56:25;98304.78;;;18.39;42.41
15694;BME280;7947;48.834;9.132;2023-04-27T10:03:09;98299.03;;;18.40;40.73
15694;BME280;7947;48.834;9.132;2023-04-27T10:06:45;98302.53;;;18.41;40.53
15694;BME280;7947;48.834;9.132;2023-04-27T10:09:53;98300.00;;;18.53;41.63
15694;BME280;7947;48.834;9.132;2023-04-27T10:13:00;98305.91;;;18.55;42.89
15694;BME280;7947;48.834;9.132;2023-04-27T10:16:14;98300.63;;;18.58;40.36
15694;BME280;7947;48.834;9.132;2023-04-27T10:19:18;98294.56;;;18.61;40.52
15694;BME280;7947;48.834;9.132;2023-04-27T10:22:23;98300.63;;;18.75;40.62
15694;BME280;7947;48.834;9.132;2023-04-27T10:25:27;98297.31;;;18.99;44.35
15694;BME280;7947;48.834;9.132;2023-04-27T10:28:37;98295.69;;;19.15;42.39
15694;BME280;7947;48.834;9.132;2023-04-27T10:31:42;98300.75;;;19.25;43.46
15694;BME280;7947;48.834;9.132;2023-04-27T10:34:45;98299.16;;;19.24;41.35
15694;BME280;7947;48.834;9.132;2023-04-27T10:37:51;98287.13;;;19.34;40.52
15694;BME280;7947;48.834;9.132;2023-04-27T10:40:56;98296.53;;;19.45;41.98
15694;BME280;7947;48.834;9.132;2023-04-27T10:44:15;98284.66;;;19.49;41.19
15694;BME280;7947;48.834;9.132;2023-04-27T10:47:19;98276.13;;;19.59;38.83
15694;BME280;7947;48.834;9.132;2023-04-27T10:50:23;98261.19;;;19.65;39.50
15694;BME280;7947;48.834;9.132;2023-04-27T10:53:33;98273.28;;;19.76;40.64
15694;BME280;7947;48.834;9.132;2023-04-27T10:56:36;98270.19;;;19.87;39.70
15694;BME280;7947;48.834;9.132;2023-04-27T10:59:48;98279.28;;;19.91;37.98
15694;BME280;7947;48.834;9.132;2023-04-27T11:02:51;98286.75;;;19.73;37.36
15694;BME280;7947;48.834;9.132;2023-04-27T11:06:00;98283.31;;;19.35;35.86
15694;BME280;7947;48.834;9.132;2023-04-27T11:09:06;98279.59;;;18.93;38.93
15694;BME280;7947;48.834;9.132;2023-04-27T11:12:11;98281.13;;;18.65;39.74
15694;BME280;7947;48.834;9.132;2023-04-27T11:15:14;98277.31;;;18.66;40.08
15694;BME280;7947;48.834;9.132;2023-04-27T11:18:19;98280.94;;;18.78;40.36
15694;BME280;7947;48.834;9.132;2023-04-27T11:21:23;98272.22;;;19.02;42.13
15694;BME280;7947;48.834;9.132;2023-04-27T11:24:30;98271.88;;;19.12;40.17
15694;BME280;7947;48.834;9.132;2023-04-27T11:27:36;98271.41;;;19.10;37.71
15694;BME280;7947;48.834;9.132;2023-04-27T11:30:40;98268.28;;;18.91;40.47
15694;BME280;7947;48.834;9.132;2023-04-27T11:33:47;98263.28;;;18.93;40.35
15694;BME280;7947;48.834;9.132;2023-04-27T11:37:00;98261.22;;;18.99;40.76
15694;BME280;7947;48.834;9.132;2023-04-27T11:40:20;98266.59;;;19.07;40.16
15694;BME280;7947;48.834;9.132;2023-04-27T11:43:25;98270.75;;;19.13;41.71
15694;BME280;7947;48.834;9.132;2023-04-27T11:46:28;98266.53;;;19.24;41.75
15694;BME280;7947;48.834;9.132;2023-04-27T11:49:31;98271.13;;;19.41;40.58
15694;BME280;7947;48.834;9.132;2023-04-27T11:52:36;98276.72;;;19.65;42.08
15694;BME280;7947;48.834;9.132;2023-04-27T11:55:41;98270.72;;;19.80;41.50
15694;BME280;7947;48.834;9.132;2023-04-27T11:58:45;98259.41;;;19.90;39.71
15694;BME280;7947;48.834;9.132;2023-04-27T12:01:50;98265.47;;;19.96;38.89
15694;BME280;7947;48.834;9.132;2023-04-27T12:04:53;98249.28;;;19.99;37.13
15694;BME280;7947;48.834;9.132;2023-04-27T12:07:56;98245.00;;;20.10;39.69
15694;BME280;7947;48.834;9.132;2023-04-27T12:11:00;98248.59;;;20.23;37.63
15694;BME280;7947;48.834;9.132;2023-04-27T12:14:03;98244.00;;;20.35;37.37
15694;BME280;7947;48.834;9.132;2023-04-27T12:17:06;98240.66;;;20.50;38.10
15694;BME280;7947;48.834;9.132;2023-04-27T12:20:10;98237.34;;;20.45;36.98
15694;BME280;7947;48.834;9.132;2023-04-27T12:23:13;98237.75;;;20.35;37.97
15694;BME280;7947;48.834;9.132;2023-04-27T12:26:17;98233.81;;;20.32;37.31
15694;BME280;7947;48.834;9.132;2023-04-27T12:29:21;98243.94;;;20.44;38.61
15694;BME280;7947;48.834;9.132;2023-04-27T12:32:24;98230.22;;;20.52;36.32
15694;BME280;7947;48.834;9.132;2023-04-27T12:35:28;98231.59;;;20.58;37.65
15694;BME280;7947;48.834;9.132;2023-04-27T12:38:32;98225.03;;;20.72;39.12
15694;BME280;7947;48.834;9.132;2023-04-27T12:41:36;98225.16;;;20.87;36.71
15694;BME280;7947;48.834;9.132;2023-04-27T12:44:39;98223.81;;;20.93;37.27
15694;BME280;7947;48.834;9.132;2023-04-27T12:47:42;98231.75;;;20.98;36.30
15694;BME280;7947;48.834;9.132;2023-04-27T12:51:04;98221.66;;;20.75;35.68
15694;BME280;7947;48.834;9.132;2023-04-27T12:54:09;98226.50;;;20.57;35.75
15694;BME280;7947;48.834;9.132;2023-04-27T12:57:15;98213.94;;;20.32;34.63
15694;BME280;7947;48.834;9.132;2023-04-27T13:00:18;98216.25;;;20.21;37.63
15694;BME280;7947;48.834;9.132;2023-04-27T13:03:21;98212.94;;;20.16;38.38
15694;BME280;7947;48.834;9.132;2023-04-27T13:06:24;98208.91;;;20.22;37.50
15694;BME280;7947;48.834;9.132;2023-04-27T13:09:27;98208.81;;;20.30;36.19
15694;BME280;7947;48.834;9.132;2023-04-27T13:12:31;98207.38;;;20.45;35.85
15694;BME280;7947;48.834;9.132;2023-04-27T13:15:34;98207.19;;;20.62;36.31
15694;BME280;7947;48.834;9.132;2023-04-27T13:18:38;98200.41;;;20.80;35.98
15694;BME280;7947;48.834;9.132;2023-04-27T13:21:41;98208.47;;;20.77;36.75
15694;BME280;7947;48.834;9.132;2023-04-27T13:24:44;98185.38;;;20.62;38.91
15694;BME280;7947;48.834;9.132;2023-04-27T13:27:48;98195.47;;;20.61;41.75
15694;BME280;7947;48.834;9.132;2023-04-27T13:30:52;98208.34;;;20.61;41.02
15694;BME280;7947;48.834;9.132;2023-04-27T13:33:55;98204.19;;;20.43;38.16
15694;BME280;7947;48.834;9.132;2023-04-27T13:36:57;98202.47;;;20.38;38.12
15694;BME280;7947;48.834;9.132;2023-04-27T13:40:00;98199.31;;;20.48;39.52
15694;BME280;7947;48.834;9.132;2023-04-27T13:43:04;98196.59;;;20.48;38.27
15694;BME280;7947;48.834;9.132;2023-04-27T13:46:07;98192.75;;;20.49;39.06
15694;BME280;7947;48.834;9.132;2023-04-27T13:49:10;98185.00;;;20.39;37.30
15694;BME280;7947;48.834;9.132;2023-04-27T13:52:13;98192.09;;;20.20;37.78
15694;BME280;7947;48.834;9.132;2023-04-27T13:55:16;98192.00;;;20.08;38.58
15694;BME280;7947;48.834;9.132;2023-04-27T13:58:20;98193.69;;;20.00;38.14
15694;BME280;7947;48.834;9.132;2023-04-27T14:01:27;98192.81;;;20.08;38.39
15694;BME280;7947;48.834;9.132;2023-04-27T14:04:30;98191.13;;;20.16;37.44
15694;BME280;7947;48.834;9.132;2023-04-27T14:07:33;98195.00;;;20.15;37.24
15694;BME280;7947;48.834;9.132;2023-04-27T14:10:37;98190.97;;;20.21;40.20
15694;BME280;7947;48.834;9.132;2023-04-27T14:13:41;98192.59;;;20.34;40.16
15694;BME280;7947;48.834;9.132;2023-04-27T14:16:44;98184.91;;;20.48;38.91
15694;BME280;7947;48.834;9.132;2023-04-27T14:19:47;98183.03;;;20.28;37.57
15694;BME280;7947;48.834;9.132;2023-04-27T14:22:50;98183.94;;;19.99;39.98
15694;BME280;7947;48.834;9.132;2023-04-27T14:25:53;98192.22;;;20.03;37.26
15694;BME280;7947;48.834;9.132;2023-04-27T14:28:57;98177.75;;;20.11;39.42
15694;BME280;7947;48.834;9.132;2023-04-27T14:32:00;98179.44;;;20.15;39.55
15694;BME280;7947;48.834;9.132;2023-04-27T14:35:03;98183.38;;;20.06;38.96
15694;BME280;7947;48.834;9.132;2023-04-27T14:38:07;98182.44;;;19.90;38.63
15694;BME280;7947;48.834;9.132;2023-04-27T14:41:10;98183.16;;;19.78;40.08
15694;BME280;7947;48.834;9.132;2023-04-27T14:44:14;98174.88;;;19.54;40.69
15694;BME280;7947;48.834;9.132;2023-04-27T14:47:17;98186.59;;;19.46;42.41
15694;BME280;7947;48.834;9.132;2023-04-27T14:50:20;98190.78;;;19.43;42.80
15694;BME280;7947;48.834;9.132;2023-04-27T14:53:23;98191.69;;;19.47;40.33
15694;BME280;7947;48.834;9.132;2023-04-27T14:56:26;98191.19;;;19.33;39.98
15694;BME280;7947;48.834;9.132;2023-04-27T14:59:30;98180.28;;;19.33;41.71
15694;BME280;7947;48.834;9.132;2023-04-27T15:02:35;98187.13;;;19.39;41.87
15694;BME280;7947;48.834;9.132;2023-04-27T15:05:38;98189.19;;;19.42;41.75
15694;BME280;7947;48.834;9.132;2023-04-27T15:08:40;98189.53;;;19.41;42.37
15694;BME280;7947;48.834;9.132;2023-04-27T15:11:43;98188.28;;;19.30;41.23
15694;BME280;7947;48.834;9.132;2023-04-27T15:14:48;98190.16;;;19.38;43.10
15694;BME280;7947;48.834;9.132;2023-04-27T15:17:53;98186.88;;;19.53;40.87
15694;BME280;7947;48.834;9.132;2023-04-27T15:20:57;98181.22;;;19.58;39.41
15694;BME280;7947;48.834;9.132;2023-04-27T15:24:00;98181.31;;;19.70;41.56
15694;BME280;7947;48.834;9.132;2023-04-27T15:27:03;98181.78;;;19.72;42.48
15694;BME280;7947;48.834;9.132;2023-04-27T15:30:12;98173.78;;;19.67;41.27
15694;BME280;7947;48.834;9.132;2023-04-27T15:33:16;98170.81;;;19.39;41.50
15694;BME280;7947;48.834;9.132;2023-04-27T15:36:20;98172.16;;;19.25;41.29
15694;BME280;7947;48.834;9.132;2023-04-27T15:39:23;98169.81;;;19.15;41.14
15694;BME280;7947;48.834;9.132;2023-04-27T15:42:27;98178.53;;;19.00;41.89
15694;BME280;7947;48.834;9.132;2023-04-27T15:45:32;98171.53;;;18.99;42.28
15694;BME280;7947;48.834;9.132;2023-04-27T15:48:35;98175.91;;;19.12;41.79
15694;BME280;7947;48.834;9.132;2023-04-27T15:51:37;98173.47;;;19.19;39.87
15694;BME280;7947;48.834;9.132;2023-04-27T15:54:40;98172.22;;;19.16;42.60
15694;BME280;7947;48.834;9.132;2023-04-27T15:57:43;98158.66;;;19.08;42.83
15694;BME280;7947;48.834;9.132;2023-04-27T16:00:47;98157.34;;;19.14;42.36
15694;BME280;7947;48.834;9.132;2023-04-27T16:03:50;98155.84;;;19.25;41.53
15694;BME280;7947;48.834;9.132;2023-04-27T16:06:53;98151.81;;;19.31;41.54
15694;BME280;7947;48.834;9.132;2023-04-27T16:09:56;98137.91;;;19.32;41.68
15694;BME280;7947;48.834;9.132;2023-04-27T16:12:59;98139.78;;;19.32;41.28
15694;BME280;7947;48.834;9.132;2023-04-27T16:16:03;98140.75;;;19.36;41.20
15694;BME280;7947;48.834;9.132;2023-04-27T16:19:06;98137.25;;;19.35;41.32
15694;BME280;7947;48.834;9.132;2023-04-27T16:22:10;98131.81;;;19.35;39.73
15694;BME280;7947;48.834;9.132;2023-04-27T16:25:13;98131.19;;;19.30;39.73
15694;BME280;7947;48.834;9.132;2023-04-27T16:28:16;98130.34;;;19.38;41.29
15694;BME280;7947;48.834;9.132;2023-04-27T16:31:21;98122.47;;;19.45;40.76
15694;BME280;7947;48.834;9.132;2023-04-27T16:34:24;98127.63;;;19.38;40.62
15694;BME280;7947;48.834;9.132;2023-04-27T16:37:28;98123.59;;;19.15;40.18